createdAt,value
2023-05-22T00:00:49.982Z,48.32
2023-05-22T00:01:50.021Z,48.32
2023-05-22T00:02:50.120Z,48.22
2023-05-22T00:03:50.207Z,48.22
2023-05-22T00:04:50.151Z,48.32
2023-05-22T00:05:50.068Z,48.32
2023-05-22T00:06:50.148Z,48.32
2023-05-22T00:07:50.084Z,48.32
2023-05-22T00:08:50.093Z,48.32
2023-05-22T00:09:50.119Z,48.43
2023-05-22T00:10:50.130Z,48.43
2023-05-22T00:11:50.145Z,48.43
2023-05-22T00:12:50.130Z,48.43
2023-05-22T00:13:50.171Z,48.43
2023-05-22T00:14:50.184Z,48.43
2023-05-22T00:15:50.190Z,48.43
2023-05-22T00:16:50.274Z,48.43
2023-05-22T00:17:50.270Z,48.43
2023-05-22T00:18:50.237Z,48.43
2023-05-22T00:19:50.277Z,48.52
2023-05-22T00:20:50.283Z,48.43
2023-05-22T00:21:50.288Z,48.52
2023-05-22T00:22:50.289Z,48.52
2023-05-22T00:23:50.303Z,48.52
2023-05-22T00:24:50.320Z,48.43
2023-05-22T00:25:50.339Z,48.52
2023-05-22T00:26:50.340Z,48.43
2023-05-22T00:27:50.361Z,48.43
2023-05-22T00:28:50.377Z,48.43
2023-05-22T00:29:50.419Z,48.43
2023-05-22T00:30:50.393Z,48.52
2023-05-22T00:31:50.408Z,48.52
2023-05-22T00:32:50.465Z,48.52
2023-05-22T00:33:50.483Z,48.63
2023-05-22T00:34:50.456Z,48.63
2023-05-22T00:35:50.607Z,48.52
2023-05-22T00:36:50.480Z,48.52
2023-05-22T00:37:50.499Z,48.52
2023-05-22T00:38:50.536Z,48.52
2023-05-22T00:39:50.547Z,48.52
2023-05-22T00:40:50.566Z,48.63
2023-05-22T00:41:50.601Z,48.63
2023-05-22T00:42:50.591Z,48.63
2023-05-22T00:43:50.605Z,48.63
2023-05-22T00:44:50.624Z,48.63
2023-05-22T00:45:50.647Z,48.65
2023-05-22T00:46:50.678Z,48.65
2023-05-22T00:47:50.716Z,48.75
2023-05-22T00:48:50.694Z,48.65
2023-05-22T00:49:50.720Z,48.75
2023-05-22T00:50:50.736Z,48.75
2023-05-22T00:51:50.756Z,48.65
2023-05-22T00:52:50.778Z,48.65
2023-05-22T00:53:50.793Z,48.75
2023-05-22T00:54:50.802Z,48.75
2023-05-22T00:55:50.816Z,48.75
2023-05-22T00:56:50.792Z,48.85
2023-05-22T00:57:50.795Z,48.85
2023-05-22T00:58:50.820Z,48.85
2023-05-22T00:59:50.839Z,48.85
2023-05-22T01:00:50.864Z,48.85
2023-05-22T01:01:50.934Z,48.85
2023-05-22T01:02:50.908Z,48.75
2023-05-22T01:03:50.951Z,48.85
2023-05-22T01:04:50.874Z,48.94
2023-05-22T01:05:50.889Z,48.94
2023-05-22T01:06:50.872Z,48.94
2023-05-22T01:07:50.868Z,48.94
2023-05-22T01:08:50.872Z,49.05
2023-05-22T01:09:50.900Z,48.94
2023-05-22T01:10:50.945Z,48.94
2023-05-22T01:11:50.950Z,49.05
2023-05-22T01:12:50.958Z,49.05
2023-05-22T01:13:50.983Z,48.94
2023-05-22T01:14:51.012Z,48.94
2023-05-22T01:15:51.057Z,48.94
2023-05-22T01:16:51.034Z,48.94
2023-05-22T01:17:51.113Z,49.05
2023-05-22T01:18:51.090Z,49.05
2023-05-22T01:19:51.059Z,49.05
2023-05-22T01:20:51.098Z,48.94
2023-05-22T01:21:51.088Z,49.05
2023-05-22T01:22:51.118Z,49.05
2023-05-22T01:23:51.320Z,49.05
2023-05-22T01:24:51.122Z,48.94
2023-05-22T01:25:51.130Z,49.05
2023-05-22T01:26:51.143Z,49.05
2023-05-22T01:27:51.178Z,49.05
2023-05-22T01:28:51.150Z,49.15
2023-05-22T01:29:51.169Z,49.15
2023-05-22T01:30:51.185Z,49.15
2023-05-22T01:31:51.198Z,49.15
2023-05-22T01:32:51.226Z,49.05
2023-05-22T01:33:51.372Z,49.15
2023-05-22T01:34:51.404Z,49.15
2023-05-22T01:35:51.248Z,49.27
2023-05-22T01:36:51.253Z,49.25
2023-05-22T01:37:51.262Z,49.25
2023-05-22T01:38:51.298Z,49.25
2023-05-22T01:39:51.296Z,49.25
2023-05-22T01:40:51.311Z,49.25
2023-05-22T01:41:51.319Z,49.15
2023-05-22T01:42:51.347Z,49.25
2023-05-22T01:43:51.356Z,49.37
2023-05-22T01:44:51.369Z,49.27
2023-05-22T01:45:51.506Z,49.27
2023-05-22T01:46:51.410Z,49.27
2023-05-22T01:47:51.496Z,49.27
2023-05-22T01:48:51.431Z,49.27
2023-05-22T01:49:51.477Z,49.27
2023-05-22T01:50:51.489Z,49.37
2023-05-22T01:51:51.499Z,49.37
2023-05-22T01:52:51.534Z,49.37
2023-05-22T01:53:51.544Z,49.37
2023-05-22T01:54:51.553Z,49.37
2023-05-22T01:55:51.548Z,49.37
2023-05-22T01:56:51.586Z,49.37
2023-05-22T01:57:51.591Z,49.37
2023-05-22T01:58:51.602Z,49.37
2023-05-22T01:59:51.617Z,49.37
2023-05-22T02:00:51.684Z,49.37
2023-05-22T02:01:51.687Z,49.47
2023-05-22T02:02:51.719Z,49.37
2023-05-22T02:03:51.644Z,49.47
2023-05-22T02:04:51.656Z,49.47
2023-05-22T02:05:51.787Z,49.47
2023-05-22T02:06:51.656Z,49.47
2023-05-22T02:07:51.675Z,49.47
2023-05-22T02:08:51.692Z,49.47
2023-05-22T02:09:51.706Z,49.47
2023-05-22T02:10:51.730Z,49.57
2023-05-22T02:11:51.783Z,49.47
2023-05-22T02:12:51.765Z,49.47
2023-05-22T02:13:51.740Z,49.57
2023-05-22T02:14:51.743Z,49.57
2023-05-22T02:15:51.812Z,49.57
2023-05-22T02:16:51.740Z,49.57
2023-05-22T02:17:51.827Z,49.57
2023-05-22T02:18:51.801Z,49.57
2023-05-22T02:19:51.793Z,49.47
2023-05-22T02:20:51.809Z,49.47
2023-05-22T02:21:51.834Z,49.57
2023-05-22T02:22:51.808Z,49.57
2023-05-22T02:23:51.790Z,49.57
2023-05-22T02:24:51.795Z,49.57
2023-05-22T02:25:51.813Z,49.57
2023-05-22T02:26:51.834Z,49.57
2023-05-22T02:27:51.862Z,49.57
2023-05-22T02:28:51.891Z,49.57
2023-05-22T02:29:51.884Z,49.57
2023-05-22T02:30:51.951Z,49.57
2023-05-22T02:31:51.932Z,49.57
2023-05-22T02:32:52.030Z,49.57
2023-05-22T02:33:51.965Z,49.57
2023-05-22T02:34:54.687Z,49.67
2023-05-22T02:35:51.983Z,49.67
2023-05-22T02:36:51.991Z,49.57
2023-05-22T02:37:52.053Z,49.57
2023-05-22T02:38:52.051Z,49.67
2023-05-22T02:39:52.062Z,49.57
2023-05-22T02:40:52.075Z,49.67
2023-05-22T02:41:52.059Z,49.67
2023-05-22T02:42:52.075Z,49.67
2023-05-22T02:43:52.100Z,49.67
2023-05-22T02:44:52.077Z,49.67
2023-05-22T02:45:52.095Z,49.67
2023-05-22T02:46:52.215Z,49.67
2023-05-22T02:47:52.154Z,49.67
2023-05-22T02:48:52.081Z,49.67
2023-05-22T02:49:52.146Z,49.67
2023-05-22T02:50:52.126Z,49.67
2023-05-22T02:51:52.107Z,49.67
2023-05-22T02:52:52.113Z,49.77
2023-05-22T02:53:52.268Z,49.79
2023-05-22T02:54:52.147Z,49.79
2023-05-22T02:55:52.174Z,49.79
2023-05-22T02:56:52.203Z,49.79
2023-05-22T02:57:52.171Z,49.79
2023-05-22T02:58:52.194Z,49.69
2023-05-22T02:59:52.195Z,49.79
2023-05-22T03:00:52.219Z,49.79
2023-05-22T03:01:52.265Z,49.69
2023-05-22T03:02:52.312Z,49.79
2023-05-22T03:03:52.352Z,49.79
2023-05-22T03:04:52.224Z,49.79
2023-05-22T03:05:52.237Z,49.90
2023-05-22T03:06:52.251Z,49.90
2023-05-22T03:07:52.263Z,49.90
2023-05-22T03:08:52.280Z,49.90
2023-05-22T03:09:52.369Z,49.90
2023-05-22T03:10:52.286Z,49.90
2023-05-22T03:11:52.287Z,49.79
2023-05-22T03:12:52.295Z,49.79
2023-05-22T03:13:52.302Z,49.79
2023-05-22T03:14:52.330Z,49.79
2023-05-22T03:15:52.387Z,49.90
2023-05-22T03:16:52.466Z,49.90
2023-05-22T03:17:52.408Z,49.90
2023-05-22T03:18:52.386Z,49.90
2023-05-22T03:19:52.348Z,49.79
2023-05-22T03:20:52.354Z,49.90
2023-05-22T03:21:52.372Z,49.99
2023-05-22T03:22:52.387Z,49.90
2023-05-22T03:23:52.397Z,49.90
2023-05-22T03:24:52.411Z,49.99
2023-05-22T03:25:52.443Z,49.90
2023-05-22T03:26:52.424Z,49.90
2023-05-22T03:27:52.442Z,49.90
2023-05-22T03:28:52.491Z,49.90
2023-05-22T03:29:52.468Z,49.90
2023-05-22T03:30:52.492Z,49.90
2023-05-22T03:31:52.504Z,49.99
2023-05-22T03:32:52.535Z,49.90
2023-05-22T03:33:52.548Z,49.90
2023-05-22T03:34:52.524Z,49.90
2023-05-22T03:35:52.536Z,49.90
2023-05-22T03:36:52.529Z,49.90
2023-05-22T03:37:52.532Z,49.99
2023-05-22T03:38:52.534Z,49.99
2023-05-22T03:39:52.645Z,49.99
2023-05-22T03:40:52.575Z,49.90
2023-05-22T03:41:52.673Z,49.90
2023-05-22T03:42:52.547Z,49.99
2023-05-22T03:43:52.557Z,49.90
2023-05-22T03:46:18.559Z,49.99
2023-05-22T03:48:44.445Z,49.99
2023-05-22T03:52:36.306Z,49.79
2023-05-22T03:53:36.328Z,49.79
2023-05-22T03:54:36.340Z,49.79
2023-05-22T03:55:36.369Z,49.79
2023-05-22T03:56:36.384Z,49.79
2023-05-22T03:57:36.421Z,49.79
2023-05-22T03:58:36.382Z,49.79
2023-05-22T03:59:36.415Z,49.79
2023-05-22T04:00:36.523Z,49.79
2023-05-22T04:01:36.399Z,49.79
2023-05-22T04:02:36.505Z,49.69
2023-05-22T04:03:36.494Z,49.67
2023-05-22T04:04:36.392Z,49.67
2023-05-22T04:05:36.455Z,49.77
2023-05-22T04:06:36.395Z,49.67
2023-05-22T04:07:36.429Z,49.67
2023-05-22T04:08:36.417Z,49.67
2023-05-22T04:09:36.448Z,49.67
2023-05-22T04:10:36.455Z,49.57
2023-05-22T04:11:36.460Z,49.57
2023-05-22T04:12:36.494Z,49.57
2023-05-22T04:13:36.487Z,49.57
2023-05-22T04:14:36.496Z,49.57
2023-05-22T04:15:36.608Z,49.47
2023-05-22T04:16:36.500Z,49.47
2023-05-22T04:17:36.600Z,49.47
2023-05-22T04:18:36.574Z,49.47
2023-05-22T04:19:36.636Z,49.47
2023-05-22T04:20:36.870Z,49.37
2023-05-22T04:21:36.621Z,49.37
2023-05-22T04:22:36.630Z,49.37
2023-05-22T04:23:36.672Z,49.37
2023-05-22T04:24:36.671Z,49.37
2023-05-22T04:25:36.652Z,49.37
2023-05-22T04:26:36.627Z,49.37
2023-05-22T04:27:36.640Z,49.27
2023-05-22T04:28:36.649Z,49.27
2023-05-22T04:29:36.702Z,49.27
2023-05-22T04:30:36.821Z,49.27
2023-05-22T04:31:36.928Z,49.27
2023-05-22T04:32:36.765Z,49.27
2023-05-22T04:33:36.744Z,49.27
2023-05-22T04:34:36.758Z,49.27
2023-05-22T04:35:36.824Z,49.27
2023-05-22T04:36:36.796Z,49.27
2023-05-22T04:37:36.822Z,49.15
2023-05-22T04:38:36.791Z,49.15
2023-05-22T04:39:36.825Z,49.15
2023-05-22T04:40:37.021Z,49.15
2023-05-22T04:41:36.861Z,49.05
2023-05-22T04:42:36.877Z,49.05
2023-05-22T04:43:36.889Z,49.05
2023-05-22T04:44:36.899Z,49.05
2023-05-22T04:45:36.926Z,49.05
2023-05-22T04:46:37.008Z,49.05
2023-05-22T04:47:37.171Z,49.05
2023-05-22T04:48:36.916Z,48.94
2023-05-22T04:49:36.920Z,48.94
2023-05-22T04:50:37.116Z,48.94
2023-05-22T04:51:36.968Z,48.94
2023-05-22T04:52:37.011Z,48.94
2023-05-22T04:53:36.987Z,48.94
2023-05-22T04:54:36.991Z,48.85
2023-05-22T04:55:37.041Z,48.85
2023-05-22T04:56:37.894Z,48.85
2023-05-22T04:57:37.045Z,48.85
2023-05-22T04:58:37.081Z,48.85
2023-05-22T04:59:37.095Z,48.85
2023-05-22T05:02:03.122Z,48.75
2023-05-22T05:03:03.116Z,48.75
2023-05-22T05:04:03.247Z,48.75
2023-05-22T05:05:03.109Z,48.75
2023-05-22T05:06:03.083Z,48.75
2023-05-22T05:07:03.122Z,48.72
2023-05-22T05:08:03.118Z,48.63
2023-05-22T05:09:03.133Z,48.63
2023-05-22T05:10:03.122Z,48.63
2023-05-22T05:11:03.149Z,48.52
2023-05-22T05:12:03.184Z,48.52
2023-05-22T05:13:03.189Z,48.52
2023-05-22T05:14:03.232Z,48.72
2023-05-22T05:15:03.248Z,48.82
2023-05-22T05:16:03.210Z,48.93
2023-05-22T05:17:03.281Z,49.02
2023-05-22T05:18:03.254Z,49.02
2023-05-22T05:19:03.190Z,49.12
2023-05-22T05:20:03.179Z,49.92
2023-05-22T05:21:03.182Z,50.12
2023-05-22T05:22:03.183Z,50.12
2023-05-22T05:23:03.166Z,50.42
2023-05-22T05:24:03.144Z,50.62
2023-05-22T05:25:03.166Z,50.62
2023-05-22T05:26:03.174Z,50.92
2023-05-22T05:27:03.207Z,50.82
2023-05-22T05:28:03.186Z,50.92
2023-05-22T05:29:03.216Z,51.12
2023-05-22T05:30:03.218Z,51.42
2023-05-22T05:31:03.236Z,51.52
2023-05-22T05:32:03.275Z,51.32
2023-05-22T05:33:03.345Z,51.82
2023-05-22T05:34:03.305Z,52.02
2023-05-22T05:35:03.275Z,51.82
2023-05-22T05:36:03.315Z,51.92
2023-05-22T05:37:03.357Z,52.02
2023-05-22T05:38:03.334Z,52.02
2023-05-22T05:39:03.361Z,52.12
2023-05-22T05:40:03.381Z,52.12
2023-05-22T05:41:03.470Z,52.02
2023-05-22T05:42:03.393Z,52.19
2023-05-22T05:43:03.405Z,52.19
2023-05-22T05:44:03.447Z,52.29
2023-05-22T05:45:03.462Z,52.09
2023-05-22T05:46:03.472Z,52.00
2023-05-22T05:47:03.457Z,52.00
2023-05-22T05:48:03.530Z,52.29
2023-05-22T05:49:03.543Z,52.00
2023-05-22T05:50:03.521Z,52.19
2023-05-22T05:51:03.501Z,52.29
2023-05-22T05:52:03.492Z,52.09
2023-05-22T05:53:03.505Z,52.29
2023-05-22T05:54:03.500Z,52.49
2023-05-22T05:55:03.595Z,52.09
2023-05-22T05:56:03.524Z,52.19
2023-05-22T05:57:03.552Z,52.09
2023-05-22T05:58:03.561Z,52.19
2023-05-22T05:59:03.577Z,52.39
2023-05-22T06:01:29.513Z,53.59
2023-05-22T06:02:29.620Z,53.69
2023-05-22T06:03:29.581Z,53.59
2023-05-22T06:04:29.543Z,53.49
2023-05-22T06:05:29.614Z,53.39
2023-05-22T06:06:29.604Z,52.99
2023-05-22T06:07:29.585Z,52.99
2023-05-22T06:08:29.610Z,52.76
2023-05-22T06:09:29.599Z,52.57
2023-05-22T06:10:29.742Z,52.57
2023-05-22T06:11:29.634Z,52.37
2023-05-22T06:12:29.661Z,52.37
2023-05-22T06:13:29.695Z,52.47
2023-05-22T06:14:29.706Z,52.47
2023-05-22T06:15:29.740Z,52.37
2023-05-22T06:17:29.846Z,52.37
2023-05-22T06:18:29.767Z,52.37
2023-05-22T06:19:29.820Z,52.37
2023-05-22T06:20:29.802Z,52.47
2023-05-22T06:21:29.815Z,52.37
2023-05-22T06:22:29.779Z,52.47
2023-05-22T06:23:29.803Z,52.47
2023-05-22T06:24:29.808Z,52.87
2023-05-22T06:25:29.840Z,52.87
2023-05-22T06:26:29.853Z,52.57
2023-05-22T06:27:29.875Z,52.25
2023-05-22T06:28:29.910Z,52.34
2023-05-22T06:29:29.930Z,52.44
2023-05-22T06:30:39.475Z,52.44
2023-05-22T06:31:29.974Z,52.14
2023-05-22T06:32:30.166Z,52.64
2023-05-22T06:33:30.107Z,52.55
2023-05-22T06:34:30.165Z,53.14
2023-05-22T06:35:30.048Z,53.24
2023-05-22T06:36:30.054Z,53.24
2023-05-22T06:37:30.083Z,53.34
2023-05-22T06:38:30.087Z,53.34
2023-05-22T06:39:31.844Z,53.34
2023-05-22T06:40:30.117Z,52.94
2023-05-22T06:41:30.119Z,53.24
2023-05-22T06:42:30.134Z,52.94
2023-05-22T06:43:30.157Z,53.14
2023-05-22T06:44:30.177Z,52.64
2023-05-22T06:45:30.364Z,52.64
2023-05-22T06:46:30.336Z,52.64
2023-05-22T06:47:30.218Z,52.64
2023-05-22T06:48:30.188Z,52.94
2023-05-22T06:49:30.199Z,52.74
2023-05-22T06:50:30.214Z,52.92
2023-05-22T06:51:30.234Z,52.81
2023-05-22T06:52:30.258Z,53.02
2023-05-22T06:53:30.299Z,53.11
2023-05-22T06:54:30.262Z,53.11
2023-05-22T06:55:30.284Z,53.02
2023-05-22T06:56:30.327Z,53.11
2023-05-22T06:57:30.310Z,53.11
2023-05-22T06:58:30.317Z,53.02
2023-05-22T06:59:30.329Z,53.02
2023-05-22T07:00:30.348Z,53.02
2023-05-22T07:01:30.430Z,52.92
2023-05-22T07:02:30.405Z,52.81
2023-05-22T07:03:30.410Z,52.72
2023-05-22T07:04:30.419Z,52.72
2023-05-22T07:05:30.519Z,52.62
2023-05-22T07:06:30.448Z,52.62
2023-05-22T07:07:30.466Z,52.51
2023-05-22T07:08:30.928Z,52.51
2023-05-22T07:09:30.519Z,52.42
2023-05-22T07:10:30.481Z,52.42
2023-05-22T07:11:30.515Z,52.32
2023-05-22T07:12:30.546Z,52.32
2023-05-22T07:13:30.524Z,52.22
2023-05-22T07:14:30.575Z,52.19
2023-05-22T07:15:30.548Z,52.19
2023-05-22T07:16:30.611Z,52.09
2023-05-22T07:17:30.581Z,52.09
2023-05-22T07:18:30.544Z,52.00
2023-05-22T07:19:30.682Z,52.00
2023-05-22T07:20:30.583Z,51.89
2023-05-22T07:21:30.585Z,51.79
2023-05-22T07:22:30.607Z,51.79
2023-05-22T07:23:30.631Z,51.70
2023-05-22T07:24:30.650Z,51.59
2023-05-22T07:25:30.716Z,51.59
2023-05-22T07:26:30.706Z,51.59
2023-05-22T07:27:30.717Z,51.50
2023-05-22T07:28:30.715Z,51.40
2023-05-22T07:29:30.725Z,51.40
2023-05-22T07:30:30.766Z,51.29
2023-05-22T07:31:30.754Z,51.20
2023-05-22T07:32:30.824Z,51.17
2023-05-22T07:33:30.768Z,51.17
2023-05-22T07:34:30.779Z,51.07
2023-05-22T07:35:30.812Z,51.07
2023-05-22T07:36:30.869Z,51.27
2023-05-22T07:37:30.869Z,51.27
2023-05-22T07:38:30.852Z,51.17
2023-05-22T07:39:30.881Z,51.17
2023-05-22T07:40:30.935Z,51.47
2023-05-22T07:41:31.003Z,51.77
2023-05-22T07:42:30.928Z,51.87
2023-05-22T07:43:30.952Z,51.84
2023-05-22T07:44:30.953Z,51.95
2023-05-22T07:45:30.984Z,51.84
2023-05-22T07:46:31.027Z,51.75
2023-05-22T07:47:31.010Z,51.75
2023-05-22T07:48:31.019Z,51.65
2023-05-22T07:49:31.015Z,51.65
2023-05-22T07:50:31.044Z,51.65
2023-05-22T07:51:31.049Z,51.65
2023-05-22T07:52:31.063Z,51.54
2023-05-22T07:53:31.074Z,51.54
2023-05-22T07:54:31.083Z,51.54
2023-05-22T07:55:31.108Z,51.45
2023-05-22T07:56:31.094Z,51.35
2023-05-22T07:57:31.363Z,51.35
2023-05-22T07:58:31.123Z,51.35
2023-05-22T07:59:31.121Z,51.35
2023-05-22T08:00:31.147Z,51.25
2023-05-22T08:01:31.130Z,51.25
2023-05-22T08:02:31.271Z,51.15
2023-05-22T08:03:31.320Z,51.05
2023-05-22T08:04:31.201Z,51.05
2023-05-22T08:05:31.140Z,50.85
2023-05-22T08:06:31.144Z,50.75
2023-05-22T08:07:31.143Z,50.65
2023-05-22T08:08:32.101Z,50.65
2023-05-22T08:09:31.118Z,50.52
2023-05-22T08:10:46.557Z,50.52
2023-05-22T08:11:31.150Z,50.52
2023-05-22T08:12:31.173Z,50.52
2023-05-22T08:13:31.332Z,50.52
2023-05-22T08:14:31.202Z,50.52
2023-05-22T08:15:31.201Z,50.43
2023-05-22T08:16:31.262Z,50.52
2023-05-22T08:17:31.266Z,50.43
2023-05-22T08:18:31.224Z,50.43
2023-05-22T08:19:31.350Z,50.52
2023-05-22T08:20:31.352Z,50.43
2023-05-22T08:21:31.286Z,50.43
2023-05-22T08:22:31.329Z,50.63
2023-05-22T08:23:31.336Z,50.52
2023-05-22T08:24:31.338Z,50.52
2023-05-22T08:25:31.368Z,50.63
2023-05-22T08:26:32.196Z,50.63
2023-05-22T08:27:31.401Z,50.73
2023-05-22T08:28:31.422Z,50.63
2023-05-22T08:29:31.495Z,50.52
2023-05-22T08:30:31.468Z,50.52
2023-05-22T08:31:31.493Z,50.40
2023-05-22T08:32:31.683Z,49.80
2023-05-22T08:33:31.483Z,50.20
2023-05-22T08:34:31.505Z,49.80
2023-05-22T08:35:31.507Z,49.71
2023-05-22T08:36:31.554Z,49.71
2023-05-22T08:37:31.592Z,49.61
2023-05-22T08:38:31.570Z,49.71
2023-05-22T08:39:31.581Z,50.01
2023-05-22T08:40:31.594Z,50.01
2023-05-22T08:41:31.610Z,49.91
2023-05-22T08:42:31.632Z,50.10
2023-05-22T08:43:31.611Z,50.10
2023-05-22T08:44:31.671Z,50.01
2023-05-22T08:45:31.738Z,50.10
2023-05-22T08:46:31.747Z,50.10
2023-05-22T08:47:31.682Z,50.20
2023-05-22T08:48:31.676Z,50.40
2023-05-22T08:49:31.681Z,50.60
2023-05-22T08:50:31.710Z,50.60
2023-05-22T08:51:31.776Z,50.60
2023-05-22T08:52:31.755Z,50.60
2023-05-22T08:53:31.782Z,50.48
2023-05-22T08:54:31.746Z,50.38
2023-05-22T08:55:31.776Z,50.38
2023-05-22T08:56:32.098Z,50.48
2023-05-22T08:57:31.772Z,50.58
2023-05-22T08:58:31.791Z,50.58
2023-05-22T08:59:31.797Z,50.78
2023-05-22T09:00:31.834Z,50.78
2023-05-22T09:01:31.923Z,50.58
2023-05-22T09:02:31.875Z,50.48
2023-05-22T09:03:31.941Z,50.38
2023-05-22T09:04:31.898Z,50.38
2023-05-22T09:05:31.934Z,50.45
2023-05-22T09:06:32.022Z,50.45
2023-05-22T09:07:31.921Z,50.26
2023-05-22T09:08:31.930Z,50.35
2023-05-22T09:09:31.946Z,50.26
2023-05-22T09:10:31.971Z,50.26
2023-05-22T09:11:32.012Z,50.16
2023-05-22T09:12:32.019Z,50.05
2023-05-22T09:13:32.051Z,50.05
2023-05-22T09:14:32.074Z,50.05
2023-05-22T09:15:32.087Z,50.16
2023-05-22T09:16:32.172Z,50.45
2023-05-22T09:17:32.239Z,50.65
2023-05-22T09:18:32.164Z,50.56
2023-05-22T09:19:32.211Z,50.65
2023-05-22T09:20:32.174Z,50.56
2023-05-22T09:21:32.155Z,50.56
2023-05-22T09:22:32.174Z,50.65
2023-05-22T09:23:32.177Z,50.56
2023-05-22T09:24:32.219Z,50.45
2023-05-22T09:25:32.200Z,50.56
2023-05-22T09:26:32.203Z,50.45
2023-05-22T09:27:32.240Z,50.45
2023-05-22T09:28:32.255Z,50.45
2023-05-22T09:29:32.288Z,50.33
2023-05-22T09:30:32.292Z,50.43
2023-05-22T09:31:32.368Z,50.23
2023-05-22T09:32:33.196Z,50.23
2023-05-22T09:33:32.412Z,50.13
2023-05-22T09:34:32.386Z,50.13
2023-05-22T09:35:32.368Z,50.13
2023-05-22T09:36:32.413Z,50.13
2023-05-22T09:37:32.402Z,50.23
2023-05-22T09:38:32.448Z,50.13
2023-05-22T09:39:32.442Z,50.03
2023-05-22T09:40:32.476Z,49.93
2023-05-22T09:41:32.493Z,49.93
2023-05-22T09:42:32.502Z,49.93
2023-05-22T09:43:32.526Z,49.84
2023-05-22T09:44:32.533Z,49.84
2023-05-22T09:45:32.529Z,49.84
2023-05-22T09:46:32.610Z,49.84
2023-05-22T09:47:32.684Z,49.84
2023-05-22T09:48:32.572Z,49.84
2023-05-22T09:49:32.587Z,49.74
2023-05-22T09:50:32.551Z,49.74
2023-05-22T09:51:32.557Z,49.63
2023-05-22T09:52:32.571Z,49.54
2023-05-22T09:53:32.592Z,49.51
2023-05-22T09:54:32.697Z,49.51
2023-05-22T09:55:32.612Z,49.51
2023-05-22T09:56:39.147Z,49.51
2023-05-22T09:57:32.609Z,49.41
2023-05-22T09:58:32.635Z,49.41
2023-05-22T09:59:32.642Z,49.21
2023-05-22T10:00:32.677Z,49.21
2023-05-22T10:01:32.726Z,49.41
2023-05-22T10:02:32.817Z,49.32
2023-05-22T10:03:32.762Z,49.32
2023-05-22T10:04:32.831Z,49.61
2023-05-22T10:05:32.974Z,49.61
2023-05-22T10:06:32.765Z,49.59
2023-05-22T10:07:32.764Z,49.49
2023-05-22T10:08:32.766Z,49.49
2023-05-22T10:09:32.778Z,49.39
2023-05-22T10:10:32.816Z,49.39
2023-05-22T10:11:32.799Z,49.39
2023-05-22T10:12:32.809Z,49.29
2023-05-22T10:13:32.827Z,49.29
2023-05-22T10:14:32.874Z,49.29
2023-05-22T10:15:32.821Z,49.19
2023-05-22T10:16:32.939Z,49.09
2023-05-22T10:17:32.928Z,49.09
2023-05-22T10:18:32.869Z,49.09
2023-05-22T10:19:33.233Z,48.99
2023-05-22T10:20:32.925Z,48.99
2023-05-22T10:21:33.069Z,48.90
2023-05-22T10:22:32.951Z,48.80
2023-05-22T10:23:32.977Z,48.80
2023-05-22T10:24:32.956Z,48.69
2023-05-22T10:25:32.981Z,48.60
2023-05-22T10:26:32.993Z,48.60
2023-05-22T10:27:33.009Z,48.50
2023-05-22T10:28:33.006Z,48.50
2023-05-22T10:29:33.032Z,48.50
2023-05-22T10:30:33.042Z,48.40
2023-05-22T10:31:33.075Z,48.40
2023-05-22T10:32:33.122Z,48.40
2023-05-22T10:33:33.145Z,48.40
2023-05-22T10:34:33.094Z,48.40
2023-05-22T10:35:33.086Z,48.30
2023-05-22T10:36:33.102Z,48.27
2023-05-22T10:37:33.229Z,48.27
2023-05-22T10:38:33.156Z,48.18
2023-05-22T10:39:33.177Z,48.18
2023-05-22T10:40:33.174Z,48.08
2023-05-22T10:41:33.205Z,48.18
2023-05-22T10:42:33.248Z,48.18
2023-05-22T10:43:33.208Z,48.27
2023-05-22T10:44:33.217Z,48.18
2023-05-22T10:45:33.365Z,48.18
2023-05-22T10:46:33.295Z,48.27
2023-05-22T10:47:33.432Z,48.08
2023-05-22T10:48:33.292Z,48.18
2023-05-22T10:49:33.297Z,48.27
2023-05-22T10:50:33.332Z,48.27
2023-05-22T10:51:33.321Z,48.18
2023-05-22T10:52:33.340Z,48.27
2023-05-22T10:53:33.500Z,48.18
2023-05-22T10:54:33.380Z,48.08
2023-05-22T10:55:33.407Z,47.88
2023-05-22T10:56:33.480Z,47.88
2023-05-22T10:57:33.446Z,47.78
2023-05-22T10:58:33.474Z,47.75
2023-05-22T10:59:33.459Z,47.88
2023-05-22T11:00:33.479Z,47.75
2023-05-22T11:01:33.521Z,47.86
2023-05-22T11:02:33.515Z,47.75
2023-05-22T11:03:33.588Z,47.75
2023-05-22T11:04:33.596Z,47.75
2023-05-22T11:05:33.548Z,47.75
2023-05-22T11:06:33.528Z,47.75
2023-05-22T11:07:33.535Z,47.75
2023-05-22T11:08:33.558Z,47.75
2023-05-22T11:09:33.718Z,47.75
2023-05-22T11:10:33.571Z,47.75
2023-05-22T11:11:33.594Z,47.86
2023-05-22T11:12:33.654Z,48.05
2023-05-22T11:13:33.683Z,48.55
2023-05-22T11:14:33.670Z,48.45
2023-05-22T11:15:33.700Z,48.55
2023-05-22T11:16:33.768Z,48.55
2023-05-22T11:17:33.733Z,48.55
2023-05-22T11:18:33.716Z,48.55
2023-05-22T11:19:33.723Z,48.55
2023-05-22T11:20:33.736Z,48.55
2023-05-22T11:21:33.708Z,48.55
2023-05-22T11:22:33.746Z,48.65
2023-05-22T11:23:33.718Z,48.85
2023-05-22T11:24:33.731Z,48.85
2023-05-22T11:25:33.898Z,48.85
2023-05-22T11:26:33.784Z,48.85
2023-05-22T11:27:33.809Z,48.75
2023-05-22T11:28:34.717Z,48.65
2023-05-22T11:29:34.720Z,48.75
2023-05-22T11:30:34.215Z,48.65
2023-05-22T11:31:33.917Z,48.65
2023-05-22T11:32:33.936Z,48.65
2023-05-22T11:33:33.851Z,48.65
2023-05-22T11:34:33.857Z,48.55
2023-05-22T11:35:33.883Z,48.45
2023-05-22T11:36:33.875Z,48.35
2023-05-22T11:37:34.704Z,48.35
2023-05-22T11:38:33.909Z,48.25
2023-05-22T11:39:33.928Z,48.15
2023-05-22T11:40:33.945Z,48.15
2023-05-22T11:41:34.299Z,48.15
2023-05-22T11:42:33.973Z,48.15
2023-05-22T11:43:33.985Z,48.15
2023-05-22T11:44:33.992Z,48.05
2023-05-22T11:45:34.006Z,48.05
2023-05-22T11:46:34.082Z,47.96
2023-05-22T11:47:34.077Z,47.96
2023-05-22T11:48:34.038Z,47.96
2023-05-22T11:49:34.065Z,47.86
2023-05-22T11:51:34.104Z,47.75
2023-05-22T11:52:34.115Z,47.75
2023-05-22T11:53:34.145Z,47.66
2023-05-22T11:54:35.821Z,47.66
2023-05-22T11:55:34.134Z,48.08
2023-05-22T11:56:34.140Z,48.50
2023-05-22T11:57:34.263Z,48.80
2023-05-22T11:58:34.136Z,48.92
2023-05-22T11:59:34.185Z,49.02
2023-05-22T12:00:34.408Z,49.21
2023-05-22T12:01:34.209Z,49.21
2023-05-22T12:02:34.372Z,49.32
2023-05-22T12:03:34.397Z,49.34
2023-05-22T12:04:34.272Z,49.44
2023-05-22T12:05:34.289Z,49.44
2023-05-22T12:06:34.348Z,49.54
2023-05-22T12:07:34.314Z,49.54
2023-05-22T12:08:34.343Z,49.63
2023-05-22T12:09:34.353Z,49.63
2023-05-22T12:13:26.354Z,49.74
2023-05-22T12:17:18.097Z,49.86
2023-05-22T12:18:18.159Z,49.76
2023-05-22T12:19:18.166Z,49.86
2023-05-22T12:20:18.166Z,49.86
2023-05-22T12:21:18.168Z,49.86
2023-05-22T12:22:18.155Z,49.86
2023-05-22T12:23:18.179Z,49.86
2023-05-22T12:24:18.181Z,49.86
2023-05-22T12:25:18.231Z,49.86
2023-05-22T12:26:18.244Z,49.86
2023-05-22T12:27:18.259Z,49.96
2023-05-22T12:28:18.285Z,49.86
2023-05-22T12:29:18.395Z,49.86
2023-05-22T12:30:18.281Z,49.86
2023-05-22T12:31:18.294Z,49.86
2023-05-22T12:32:18.428Z,49.86
2023-05-22T12:33:18.327Z,49.86
2023-05-22T12:34:18.301Z,49.76
2023-05-22T12:35:18.349Z,49.76
2023-05-22T12:36:18.321Z,49.86
2023-05-22T12:37:18.330Z,49.76
2023-05-22T12:38:18.339Z,49.86
2023-05-22T12:39:18.353Z,49.76
2023-05-22T12:40:18.383Z,49.76
2023-05-22T12:41:18.373Z,49.76
2023-05-22T12:42:18.376Z,49.86
2023-05-22T12:43:18.396Z,49.86
2023-05-22T12:44:18.404Z,49.86
2023-05-22T12:45:18.526Z,49.76
2023-05-22T12:46:18.541Z,49.76
2023-05-22T12:47:18.436Z,49.86
2023-05-22T12:48:18.467Z,49.86
2023-05-22T12:49:18.478Z,49.76
2023-05-22T12:50:18.525Z,49.66
2023-05-22T12:51:20.038Z,49.66
2023-05-22T12:52:18.594Z,49.66
2023-05-22T12:53:18.532Z,49.66
2023-05-22T12:54:18.542Z,49.66
2023-05-22T12:55:18.558Z,49.66
2023-05-22T12:56:19.181Z,49.66
2023-05-22T12:57:18.596Z,49.66
2023-05-22T12:58:18.626Z,49.66
2023-05-22T12:59:20.733Z,49.56
2023-05-22T13:00:18.624Z,49.56
2023-05-22T13:01:18.798Z,49.56
2023-05-22T13:02:18.645Z,49.58
2023-05-22T13:03:18.652Z,49.58
2023-05-22T13:04:18.657Z,49.56
2023-05-22T13:05:18.792Z,49.56
2023-05-22T13:06:18.650Z,49.56
2023-05-22T13:07:18.647Z,49.46
2023-05-22T13:08:18.661Z,49.46
2023-05-22T13:09:18.666Z,49.46